Kezdőlap
METAR-TAF:

METAR-TAF

Repülőterek :

Kit Carson County Airport

Burlington, Colorado, Amerikai Egyesült Államok

földrajzi szélesség: 39-14-32N, földrajzi hosszúság: 102-16-58W, magasság: 1285 m

Jelenlegi meteorológiai megfigyelések

A jelentés 22 perccel ezelõtt készült, 19:53 UTC
Észak-északnyugati szél 14 kt széllökések: 26 kt
Hőmérséklet 24°C
Páratartalom 25%
Légköri nyomás 1012 hPa
Látótávolság: 16.1 km
Szórványos felhőzet 8500 lábon

METAR: KITR 261953Z AUTO 33014G26KT 10SM SCT085 24/03 A2988 RMK AO2 PK WND 34033/1905 SLP075 T02440028 $

Idő: 14:15 (20:15 UTC)


TAF: hiányzik

Meteorológiai megfigyelések és előrejelzések több, mint 4000 repülőtéren (METAR és TAF jelentéseket).

A térképen piros és sárga pontok jelzik az elérhető meteorológiai állomásokat.

Mozgassa az egeret a pont fölött, hogy megjelenjen az állomás neve.

Azután kattintson az időjárási megfigyelések és előrejelzések megtekintéséhez.

A térkép megváltoztatása: kattintson a fekete keresztel jelölt zöld gombra ráközelítéshez, a vonallal jelölt zöld gombra távolításhoz, vagy a zöld nyilakra a szomszédos térképek eléréséhez.


METAR-TAF: